Time;durP1;ratioP1;P1;durP2;ratioP2;P2;SDS_P1;SDS_P2;PMS_P1;PMS_P2;Temp;Humidity;BMP_temperature;BMP_pressure;BME280_temperature;BME280_humidity;BME280_pressure;Samples;Min_cycle;Max_cycle;Signal;HPM_P1;HPM_P2
2022/06/10 00:01:58;;;;;;;330.93;319.37;;;13.10;99.90;;;;;;5037379;28;20502;-84
2022/06/10 00:04:26;;;;;;;381.10;367.73;;;13.10;99.90;;;;;;5036917;28;20467;-84
2022/06/10 00:06:52;;;;;;;381.57;366.70;;;12.90;99.90;;;;;;5037050;28;20463;-84
2022/06/10 00:09:19;;;;;;;371.23;357.93;;;12.90;99.90;;;;;;5036476;28;20452;-84
2022/06/10 00:11:46;;;;;;;361.97;349.23;;;12.80;99.90;;;;;;5036931;28;20463;-84
2022/06/10 00:14:12;;;;;;;350.23;338.03;;;12.70;99.90;;;;;;5037050;28;20452;-84
2022/06/10 00:16:41;;;;;;;345.63;333.63;;;12.70;99.90;;;;;;5036867;28;20476;-84
2022/06/10 00:19:07;;;;;;;367.77;354.87;;;12.60;99.90;;;;;;5036202;28;20463;-84
2022/06/10 00:21:34;;;;;;;407.23;392.60;;;12.50;99.90;;;;;;5036811;28;20836;-85
2022/06/10 00:24:01;;;;;;;302.30;292.20;;;12.50;99.90;;;;;;5037324;28;20452;-85
2022/06/10 00:26:27;;;;;;;245.93;237.60;;;12.50;99.90;;;;;;5036904;28;20472;-84
2022/06/10 00:28:54;;;;;;;212.23;205.20;;;12.60;99.90;;;;;;5036283;28;20456;-84
2022/06/10 00:31:21;;;;;;;157.33;151.93;;;12.60;99.90;;;;;;5036817;28;20460;-84
2022/06/10 00:33:49;;;;;;;200.23;193.53;;;12.50;99.90;;;;;;5036697;28;20527;-85
2022/06/10 00:36:16;;;;;;;195.23;188.60;;;12.50;99.90;;;;;;5036468;28;20468;-84
2022/06/10 00:38:43;;;;;;;182.10;175.80;;;12.50;99.90;;;;;;5035921;28;20487;-84
2022/06/10 00:41:10;;;;;;;246.77;238.67;;;12.40;99.90;;;;;;5037316;28;20452;-84
2022/06/10 00:43:37;;;;;;;289.70;279.43;;;12.30;99.90;;;;;;5036962;28;21020;-84
2022/06/10 00:46:19;;;;;;;326.83;315.23;;;12.20;99.90;;;;;;5035767;28;20479;-84
2022/06/10 00:48:54;;;;;;;325.53;314.30;;;12.10;99.90;;;;;;5035663;28;20464;-84
2022/06/10 00:51:25;;;;;;;331.67;320.27;;;12.10;99.90;;;;;;5036275;28;20455;-84
2022/06/10 00:53:57;;;;;;;360.53;347.90;;;12.00;99.90;;;;;;5035231;28;20447;-84
2022/06/10 00:56:27;;;;;;;371.97;358.53;;;12.00;99.90;;;;;;5036556;28;20488;-85
2022/06/10 00:58:57;;;;;;;418.00;402.83;;;11.90;99.90;;;;;;5035769;28;20459;-84
2022/06/10 01:01:25;;;;;;;503.30;482.30;;;11.80;99.90;;;;;;5036709;28;20452;-84
2022/06/10 01:03:55;;;;;;;560.23;537.17;;;11.70;99.90;;;;;;5035606;28;20476;-84
2022/06/10 01:06:22;;;;;;;642.53;611.33;;;11.60;99.90;;;;;;5035997;28;20479;-85
2022/06/10 01:08:51;;;;;;;687.63;651.93;;;11.50;99.90;;;;;;5035654;28;20459;-85
2022/06/10 01:11:32;;;;;;;707.63;669.13;;;11.40;99.90;;;;;;5036127;28;20461;-85
2022/06/10 01:14:08;;;;;;;752.50;708.50;;;11.30;99.90;;;;;;5035530;28;20814;-84
2022/06/10 01:16:44;;;;;;;788.43;739.83;;;11.20;99.90;;;;;;5035844;28;20475;-84
2022/06/10 01:19:35;;;;;;;783.90;735.50;;;11.40;99.90;;;;;;5034726;28;20459;-84
2022/06/10 01:22:29;;;;;;;782.07;733.93;;;11.30;99.90;;;;;;5035090;28;20464;-84
2022/06/10 01:25:26;;;;;;;781.70;733.93;;;11.50;99.90;;;;;;5035605;28;21015;-84
2022/06/10 01:28:05;;;;;;;786.47;737.47;;;11.50;99.90;;;;;;5028833;28;20467;-84
2022/06/10 01:30:51;;;;;;;778.53;730.57;;;11.40;99.90;;;;;;5035202;28;20944;-84
2022/06/10 01:33:26;;;;;;;798.87;749.57;;;11.40;99.90;;;;;;5035737;28;20452;-84
2022/06/10 01:36:02;;;;;;;803.43;753.17;;;11.40;99.90;;;;;;5035027;28;20581;-84
2022/06/10 01:38:38;;;;;;;790.97;741.17;;;11.40;99.90;;;;;;5034827;28;20559;-84
2022/06/10 01:41:24;;;;;;;789.60;740.53;;;11.50;99.90;;;;;;5035635;28;20482;-84
2022/06/10 01:43:58;;;;;;;801.73;752.00;;;11.40;99.90;;;;;;5035220;28;20487;-84
2022/06/10 01:46:30;;;;;;;810.83;759.57;;;11.40;99.90;;;;;;5035024;28;20476;-84
2022/06/10 01:49:06;;;;;;;818.17;764.77;;;11.30;99.90;;;;;;5034794;28;20455;-85
2022/06/10 01:51:54;;;;;;;837.37;782.87;;;11.20;99.90;;;;;;5036016;28;20451;-84
2022/06/10 01:54:28;;;;;;;830.33;776.57;;;11.20;99.90;;;;;;5033739;28;20475;-84
2022/06/10 01:56:58;;;;;;;831.80;776.50;;;11.20;99.90;;;;;;5062871;22;20518;-82
2022/06/10 01:59:28;;;;;;;827.50;772.10;;;11.20;99.90;;;;;;5041396;28;20451;-85
2022/06/10 02:02:02;;;;;;;824.97;769.50;;;11.20;99.90;;;;;;5043613;28;20828;-82
2022/06/10 02:04:33;;;;;;;847.03;790.63;;;11.10;99.90;;;;;;5043969;28;20466;-81
2022/06/10 02:07:05;;;;;;;856.23;797.37;;;11.10;99.90;;;;;;5044352;28;20476;-82
2022/06/10 02:09:40;;;;;;;848.83;789.47;;;11.00;99.90;;;;;;5043060;28;20440;-81
2022/06/10 02:12:14;;;;;;;843.17;784.57;;;11.00;99.90;;;;;;5044061;28;20451;-81
2022/06/10 02:14:46;;;;;;;842.27;783.77;;;11.10;99.90;;;;;;5043476;28;20456;-81
2022/06/10 02:17:16;;;;;;;841.10;782.80;;;11.10;99.90;;;;;;5044346;28;20480;-82
2022/06/10 02:19:47;;;;;;;832.87;776.17;;;11.20;99.90;;;;;;5044336;28;20458;-83
2022/06/10 02:22:18;;;;;;;832.00;776.77;;;11.20;99.90;;;;;;5043915;28;20447;-81
2022/06/10 02:24:49;;;;;;;826.50;771.37;;;11.20;99.90;;;;;;5043844;28;20456;-82
2022/06/10 02:27:19;;;;;;;828.63;772.77;;;11.10;99.90;;;;;;5043855;28;20459;-82
2022/06/10 02:29:53;;;;;;;813.57;760.47;;;11.10;99.90;;;;;;5043602;28;20952;-82
2022/06/10 02:32:21;;;;;;;798.10;745.87;;;11.10;99.90;;;;;;5042004;28;20836;-82
2022/06/10 02:34:48;;;;;;;802.10;750.73;;;11.00;99.90;;;;;;5041068;28;20455;-81
2022/06/10 02:37:22;;;;;;;791.47;741.80;;;11.00;99.90;;;;;;5040859;28;20479;-81
2022/06/10 02:39:57;;;;;;;777.10;729.60;;;10.80;99.90;;;;;;5040975;28;20520;-81
2022/06/10 02:42:32;;;;;;;797.23;748.70;;;10.60;99.90;;;;;;5042013;28;20452;-82
2022/06/10 02:45:06;;;;;;;809.53;758.63;;;10.40;99.90;;;;;;5040422;28;20460;-81
2022/06/10 02:47:41;;;;;;;844.23;790.33;;;10.30;99.90;;;;;;5042280;28;20456;-81
2022/06/10 02:50:09;;;;;;;859.77;802.33;;;10.10;99.90;;;;;;5042325;28;20870;-81
2022/06/10 02:52:37;;;;;;;882.20;820.67;;;10.00;99.90;;;;;;5041441;28;20823;-84
2022/06/10 02:55:07;;;;;;;891.97;827.80;;;9.90;99.90;;;;;;5040488;28;20492;-81
2022/06/10 03:03:34;;;;;;;888.73;818.40;;;9.70;99.90;;;;;;4980559;28;20458;-81
2022/06/10 03:06:08;;;;;;;889.50;818.63;;;9.70;99.90;;;;;;4980001;28;20517;-83
2022/06/10 03:08:39;;;;;;;889.00;816.13;;;9.60;99.90;;;;;;5013888;28;20447;-81
2022/06/10 03:11:13;;;;;;;895.17;821.10;;;9.50;99.90;;;;;;5041656;28;20452;-81
2022/06/10 03:13:55;;;;;;;889.23;818.47;;;9.60;99.90;;;;;;5040549;28;20476;-81
2022/06/10 03:16:33;;;;;;;902.30;829.40;;;9.40;99.90;;;;;;5039733;28;20469;-81
2022/06/10 03:19:08;;;;;;;899.23;825.40;;;9.40;99.90;;;;;;5039854;28;20474;-83
2022/06/10 03:21:48;;;;;;;907.00;831.57;;;9.30;99.90;;;;;;5041273;28;20466;-82
2022/06/10 03:24:24;;;;;;;909.17;831.40;;;9.40;99.90;;;;;;5040903;28;20451;-81
2022/06/10 03:26:59;;;;;;;909.33;827.07;;;9.50;99.90;;;;;;5040112;28;20467;-81
2022/06/10 03:29:33;;;;;;;909.00;827.80;;;9.90;99.90;;;;;;5039238;28;20478;-82
2022/06/10 03:32:10;;;;;;;884.03;804.23;;;10.00;99.90;;;;;;5040684;28;20483;-81
2022/06/10 03:34:42;;;;;;;882.60;806.50;;;9.90;99.90;;;;;;5040771;28;20486;-82
2022/06/10 03:37:11;;;;;;;891.60;814.67;;;10.00;99.90;;;;;;5040393;28;20478;-80
2022/06/10 03:39:41;;;;;;;877.07;804.13;;;10.10;99.90;;;;;;5038896;28;20459;-82
2022/06/10 03:42:16;;;;;;;870.67;801.47;;;10.00;99.90;;;;;;5038696;28;20458;-82
2022/06/10 03:44:44;;;;;;;888.77;816.67;;;9.90;99.90;;;;;;5041975;28;20451;-82
2022/06/10 03:47:16;;;;;;;884.93;812.50;;;9.90;99.90;;;;;;5041475;28;20472;-85
2022/06/10 03:49:50;;;;;;;878.77;807.00;;;10.00;99.90;;;;;;5038734;28;20447;-80
2022/06/10 03:52:20;;;;;;;893.43;820.73;;;9.90;99.90;;;;;;5040973;28;20479;-81
2022/06/10 03:54:47;;;;;;;901.20;824.90;;;10.10;99.90;;;;;;5040067;28;20475;-82
2022/06/10 03:57:16;;;;;;;894.47;819.23;;;10.00;99.90;;;;;;5036770;28;20488;-84
2022/06/10 03:59:43;;;;;;;886.93;812.63;;;10.20;99.90;;;;;;5037553;28;20456;-81
2022/06/10 04:02:10;;;;;;;885.50;811.90;;;10.20;99.90;;;;;;5040923;28;20459;-82
2022/06/10 04:04:38;;;;;;;877.83;805.87;;;10.40;99.90;;;;;;5035305;28;20452;-85
2022/06/10 04:07:07;;;;;;;872.17;801.03;;;10.60;99.90;;;;;;5036003;28;20563;-82
2022/06/10 04:09:33;;;;;;;868.30;799.10;;;10.60;99.90;;;;;;5036177;28;20467;-82
2022/06/10 04:12:00;;;;;;;871.40;803.50;;;10.70;99.90;;;;;;5035779;28;20833;-84
2022/06/10 04:14:27;;;;;;;874.00;808.17;;;11.00;99.90;;;;;;5036211;28;20487;-79
2022/06/10 04:16:53;;;;;;;860.03;794.90;;;11.00;99.90;;;;;;5033916;28;20858;-79
2022/06/10 04:19:21;;;;;;;854.57;790.53;;;11.20;99.90;;;;;;5030524;28;20457;-79
2022/06/10 04:21:48;;;;;;;854.57;792.17;;;11.40;99.90;;;;;;5032365;28;20514;-80
2022/06/10 04:24:16;;;;;;;844.00;783.33;;;11.50;99.90;;;;;;5033508;28;20463;-82
2022/06/10 04:26:43;;;;;;;841.00;781.53;;;11.60;99.90;;;;;;5033092;28;20476;-78
2022/06/10 04:29:12;;;;;;;841.13;782.40;;;11.80;99.90;;;;;;5032496;28;20945;-79
2022/06/10 04:31:39;;;;;;;830.17;772.87;;;11.90;99.90;;;;;;5032847;28;20464;-79
2022/06/10 04:34:06;;;;;;;828.47;771.17;;;12.00;99.90;;;;;;5032764;28;21015;-79
2022/06/10 04:36:33;;;;;;;792.47;739.43;;;12.20;99.90;;;;;;5032763;28;20478;-79
2022/06/10 04:39:00;;;;;;;766.03;716.23;;;12.50;99.90;;;;;;5032684;28;20448;-79
2022/06/10 04:41:28;;;;;;;706.47;664.83;;;12.60;99.90;;;;;;5033084;28;20826;-79
2022/06/10 04:43:55;;;;;;;648.97;613.27;;;12.70;99.90;;;;;;5033775;28;20453;-79
2022/06/10 04:46:25;;;;;;;599.80;567.37;;;12.90;99.90;;;;;;5033663;28;20845;-80
2022/06/10 04:48:52;;;;;;;550.50;523.60;;;13.10;99.90;;;;;;5034188;28;20464;-79
2022/06/10 04:51:19;;;;;;;467.53;446.53;;;13.20;99.90;;;;;;5034482;28;20456;-79
2022/06/10 04:53:45;;;;;;;458.93;438.47;;;13.40;99.90;;;;;;5034133;28;20480;-79
2022/06/10 04:56:12;;;;;;;458.27;438.80;;;13.60;99.90;;;;;;5034642;28;20484;-79
2022/06/10 04:58:40;;;;;;;426.43;409.03;;;13.80;99.90;;;;;;5033292;28;20463;-79
2022/06/10 05:01:07;;;;;;;403.43;387.10;;;14.10;99.90;;;;;;5034075;28;20456;-80
2022/06/10 05:03:34;;;;;;;370.80;356.33;;;14.20;99.90;;;;;;5035413;28;20471;-79
2022/06/10 05:06:03;;;;;;;335.10;322.63;;;14.40;99.90;;;;;;5034641;28;20508;-79
2022/06/10 05:08:30;;;;;;;290.30;279.90;;;14.60;99.90;;;;;;5034667;28;20452;-80
2022/06/10 05:10:56;;;;;;;203.13;195.80;;;14.70;99.90;;;;;;5035422;28;20826;-79
2022/06/10 05:13:23;;;;;;;149.37;143.30;;;14.80;99.90;;;;;;5034882;28;20487;-79
2022/06/10 05:15:51;;;;;;;110.90;106.33;;;14.80;99.90;;;;;;5034625;28;20501;-80
2022/06/10 05:18:21;;;;;;;82.53;79.13;;;14.80;99.90;;;;;;5034337;28;20453;-80
2022/06/10 05:20:48;;;;;;;68.27;64.93;;;14.80;99.90;;;;;;5036429;28;20450;-80
2022/06/10 05:23:18;;;;;;;71.30;68.40;;;14.80;99.90;;;;;;5035443;28;20452;-79
2022/06/10 05:25:52;;;;;;;69.20;66.00;;;14.80;99.90;;;;;;5035286;28;20489;-80
2022/06/10 05:28:21;;;;;;;53.73;51.40;;;14.90;99.90;;;;;;5039354;28;20456;-81
2022/06/10 05:30:48;;;;;;;51.60;48.47;;;15.00;99.90;;;;;;5039948;28;20471;-81
2022/06/10 05:33:16;;;;;;;42.57;40.00;;;15.00;99.90;;;;;;5040387;28;20889;-83
2022/06/10 05:35:45;;;;;;;37.43;35.70;;;15.00;99.90;;;;;;5039582;28;20563;-82
2022/06/10 05:38:14;;;;;;;21.83;20.57;;;15.00;99.90;;;;;;5039680;28;20456;-81
2022/06/10 05:40:42;;;;;;;23.17;21.43;;;15.10;99.90;;;;;;5040876;28;20481;-84
2022/06/10 05:43:09;;;;;;;24.47;23.07;;;15.10;99.90;;;;;;5041084;28;20511;-82
2022/06/10 05:45:38;;;;;;;23.43;21.93;;;15.10;99.90;;;;;;5040664;28;20483;-81
2022/06/10 05:48:06;;;;;;;25.73;24.17;;;15.00;99.90;;;;;;5039836;28;20461;-82
2022/06/10 05:50:39;;;;;;;18.80;17.50;;;15.00;99.90;;;;;;5040009;28;20463;-81
2022/06/10 05:53:08;;;;;;;13.00;11.60;;;15.00;99.90;;;;;;5040204;28;20505;-82
2022/06/10 05:55:36;;;;;;;12.57;11.53;;;15.10;99.90;;;;;;5039741;28;20489;-82
2022/06/10 05:58:03;;;;;;;11.50;10.70;;;14.90;99.90;;;;;;5040233;28;20464;-82
2022/06/10 06:00:31;;;;;;;16.37;14.37;;;15.10;99.90;;;;;;5038819;28;20539;-85
2022/06/10 06:02:59;;;;;;;8.80;7.93;;;15.10;99.90;;;;;;5039483;28;20881;-82
2022/06/10 06:05:30;;;;;;;12.50;8.33;;;15.10;99.90;;;;;;5039959;28;20503;-82
2022/06/10 06:07:58;;;;;;;7.63;6.90;;;15.30;99.90;;;;;;5039919;28;20485;-82
2022/06/10 06:10:27;;;;;;;10.13;6.27;;;15.30;99.90;;;;;;5039612;28;20455;-82
2022/06/10 06:12:54;;;;;;;9.40;8.70;;;15.30;99.90;;;;;;5039904;28;20532;-82
2022/06/10 06:15:22;;;;;;;9.10;8.07;;;15.40;99.90;;;;;;5036445;28;20489;-84
2022/06/10 06:17:50;;;;;;;13.73;9.40;;;15.50;99.90;;;;;;5038965;28;20865;-82
2022/06/10 06:20:17;;;;;;;7.17;6.47;;;15.70;99.90;;;;;;5036755;28;20539;-82
2022/06/10 06:22:43;;;;;;;8.83;7.93;;;15.80;99.90;;;;;;5038935;28;20485;-81
2022/06/10 06:25:15;;;;;;;10.33;4.60;;;15.90;99.90;;;;;;5034015;28;20454;-83
2022/06/10 06:27:43;;;;;;;5.87;3.57;;;16.00;98.00;;;;;;5034474;28;20869;-83
2022/06/10 06:30:15;;;;;;;10.13;3.33;;;16.30;96.40;;;;;;5038123;28;20455;-82
2022/06/10 06:32:43;;;;;;;4.70;3.07;;;16.30;95.00;;;;;;5036344;28;20450;-82
2022/06/10 06:35:10;;;;;;;8.40;3.00;;;16.60;95.30;;;;;;5034784;28;20483;-84
2022/06/10 06:37:37;;;;;;;12.73;2.73;;;16.80;94.60;;;;;;5037136;28;20990;-82
2022/06/10 06:40:04;;;;;;;6.17;2.40;;;16.90;92.60;;;;;;5035513;28;20462;-85
2022/06/10 06:42:32;;;;;;;6.00;2.70;;;17.00;91.20;;;;;;5035044;28;20505;-83
2022/06/10 06:45:00;;;;;;;13.10;3.00;;;17.20;90.50;;;;;;5039054;28;20457;-83
2022/06/10 06:47:27;;;;;;;9.03;2.73;;;17.20;90.30;;;;;;5039974;28;20459;-83
2022/06/10 06:49:53;;;;;;;7.00;2.30;;;17.10;88.40;;;;;;5038271;28;21000;-81
2022/06/10 06:52:20;;;;;;;6.80;2.50;;;17.00;86.40;;;;;;5041427;28;20449;-80
2022/06/10 06:54:47;;;;;;;9.43;2.53;;;17.20;88.50;;;;;;5040778;28;20573;-80
2022/06/10 06:57:13;;;;;;;14.77;3.30;;;17.10;87.30;;;;;;5040078;28;20472;-82
2022/06/10 06:59:42;;;;;;;7.50;2.00;;;17.20;86.20;;;;;;5040710;28;20458;-82
2022/06/10 07:02:10;;;;;;;7.03;2.40;;;17.20;85.00;;;;;;5040869;28;20883;-82
2022/06/10 07:04:37;;;;;;;8.03;2.80;;;17.50;84.60;;;;;;5040486;28;20456;-82
2022/06/10 07:07:04;;;;;;;6.27;2.40;;;17.70;84.00;;;;;;5040923;28;20483;-83
2022/06/10 07:09:31;;;;;;;8.90;1.80;;;18.10;85.00;;;;;;5040279;28;20550;-82
2022/06/10 07:11:58;;;;;;;6.70;2.27;;;18.20;79.80;;;;;;5040563;28;20460;-81
2022/06/10 07:14:30;;;;;;;10.00;2.13;;;18.50;77.50;;;;;;5041237;28;20493;-82
2022/06/10 07:16:58;;;;;;;4.57;1.73;;;18.90;74.60;;;;;;5041231;28;20539;-83
2022/06/10 07:19:25;;;;;;;6.53;2.10;;;19.20;74.20;;;;;;5037797;28;20453;-85
2022/06/10 07:21:56;;;;;;;9.13;2.23;;;19.30;70.20;;;;;;5036326;28;20539;-86
2022/06/10 07:24:23;;;;;;;10.10;2.13;;;19.80;69.90;;;;;;5037690;28;20482;-83
2022/06/10 07:26:49;;;;;;;10.93;2.20;;;20.40;65.60;;;;;;5035909;28;20484;-83
2022/06/10 07:29:16;;;;;;;7.50;2.30;;;20.90;65.00;;;;;;5037162;28;20549;-82
2022/06/10 07:31:44;;;;;;;7.73;1.90;;;21.10;62.30;;;;;;5037443;28;20456;-82
2022/06/10 07:34:15;;;;;;;8.87;3.10;;;21.10;58.50;;;;;;5037144;28;20453;-85
2022/06/10 07:36:42;;;;;;;7.20;1.87;;;21.60;59.70;;;;;;5037297;28;20488;-82
2022/06/10 07:39:09;;;;;;;5.90;2.17;;;21.60;54.70;;;;;;5037459;28;20844;-82
2022/06/10 07:44:21;;;;;;;6.17;2.43;;;22.30;53.10;;;;;;5036179;28;21034;-81
2022/06/10 07:46:48;;;;;;;9.07;1.53;;;22.40;52.50;;;;;;5037579;28;20984;-80
2022/06/10 07:49:17;;;;;;;12.10;2.17;;;22.40;48.40;;;;;;5036898;28;20453;-81
2022/06/10 07:51:44;;;;;;;7.50;2.17;;;22.80;50.00;;;;;;5040432;28;20199;-80
2022/06/10 07:54:10;;;;;;;6.73;1.37;;;22.70;46.90;;;;;;5040300;28;20450;-80
2022/06/10 07:56:37;;;;;;;5.03;1.43;;;22.60;43.80;;;;;;5039699;28;20527;-81
2022/06/10 07:59:04;;;;;;;8.07;1.60;;;23.00;47.20;;;;;;5039746;28;20647;-80
2022/06/10 08:01:31;;;;;;;6.70;1.90;;;23.00;44.00;;;;;;5040919;28;20465;-81
2022/06/10 08:03:58;;;;;;;9.60;1.73;;;23.20;44.20;;;;;;5040010;28;20452;-81
2022/06/10 08:06:28;;;;;;;5.93;1.43;;;22.90;35.90;;;;;;5040024;28;20479;-83
2022/06/10 08:08:55;;;;;;;11.07;1.97;;;23.10;39.80;;;;;;5040045;28;20557;-80
2022/06/10 08:11:23;;;;;;;8.50;1.70;;;24.00;35.20;;;;;;5040764;28;20452;-80
2022/06/10 08:13:50;;;;;;;7.23;1.50;;;24.00;32.90;;;;;;5040243;28;20467;-82
2022/06/10 08:16:18;;;;;;;9.10;2.30;;;24.20;35.60;;;;;;5040364;28;20468;-80
2022/06/10 08:18:45;;;;;;;8.87;1.63;;;24.40;30.10;;;;;;5040129;28;20455;-80
2022/06/10 08:23:57;;;;;;;7.87;1.30;;;25.00;29.60;;;;;;5040339;28;20887;-83
2022/06/10 08:26:25;;;;;;;8.60;1.80;;;25.40;27.10;;;;;;5040174;28;21026;-80
2022/06/10 08:28:52;;;;;;;6.53;1.60;;;26.20;26.40;;;;;;5040334;28;20457;-80
2022/06/10 08:31:19;;;;;;;8.40;1.60;;;26.30;24.30;;;;;;5040863;28;20488;-81
2022/06/10 08:33:46;;;;;;;9.60;1.80;;;26.10;26.80;;;;;;5041075;28;20448;-81
2022/06/10 08:36:13;;;;;;;4.90;1.83;;;25.20;24.20;;;;;;5040952;28;20475;-81
2022/06/10 08:38:42;;;;;;;8.10;1.70;;;25.10;27.20;;;;;;5039654;28;20467;-81
2022/06/10 08:41:19;;;;;;;13.53;1.53;;;24.40;30.10;;;;;;5039482;28;20491;-80
2022/06/10 08:44:00;;;;;;;7.70;1.50;;;23.60;29.60;;;;;;5039234;28;20845;-81
2022/06/10 08:46:42;;;;;;;11.60;2.07;;;22.80;30.30;;;;;;5037521;28;20487;-80
2022/06/10 08:49:27;;;;;;;6.07;1.63;;;22.20;31.60;;;;;;5037516;28;20455;-80
2022/06/10 08:52:00;;;;;;;8.07;1.83;;;22.00;37.60;;;;;;5037987;28;20559;-81
2022/06/10 08:54:36;;;;;;;10.43;1.87;;;21.40;39.00;;;;;;5037251;28;20962;-80
2022/06/10 08:57:16;;;;;;;8.33;1.43;;;21.10;42.70;;;;;;5036216;28;20489;-81
2022/06/10 08:59:46;;;;;;;8.83;1.50;;;20.50;44.90;;;;;;5038553;28;20466;-81
2022/06/10 09:02:23;;;;;;;6.27;1.30;;;20.60;46.10;;;;;;5039093;28;20457;-81
2022/06/10 09:04:55;;;;;;;10.50;1.83;;;20.80;47.00;;;;;;5038233;28;20482;-82
2022/06/10 09:07:31;;;;;;;7.53;1.53;;;21.00;45.30;;;;;;5037998;28;20835;-82
2022/06/10 09:10:01;;;;;;;8.33;2.07;;;20.50;45.60;;;;;;5037126;28;20456;-82
2022/06/10 09:12:45;;;;;;;6.73;1.83;;;20.50;48.20;;;;;;5038420;28;20460;-82
2022/06/10 09:15:16;;;;;;;9.67;1.50;;;20.20;48.40;;;;;;5037969;28;20479;-82
2022/06/10 09:17:50;;;;;;;13.00;1.90;;;20.00;49.00;;;;;;5038924;28;20452;-81
2022/06/10 09:20:23;;;;;;;9.50;1.80;;;19.80;50.70;;;;;;5037617;28;20453;-81
2022/06/10 09:22:56;;;;;;;8.57;1.50;;;19.80;54.30;;;;;;5038019;28;20526;-81
2022/06/10 09:25:31;;;;;;;6.70;1.80;;;19.90;57.20;;;;;;5039172;28;20453;-83
2022/06/10 09:28:01;;;;;;;6.60;1.80;;;20.00;56.10;;;;;;5041312;28;20233;-82
2022/06/10 09:30:34;;;;;;;7.93;1.70;;;19.90;53.10;;;;;;5041136;28;20536;-82
2022/06/10 09:33:07;;;;;;;6.37;1.77;;;20.00;53.40;;;;;;5036055;28;20519;-84
2022/06/10 09:35:41;;;;;;;12.97;2.13;;;20.00;50.40;;;;;;5036666;28;20533;-86
2022/06/10 09:38:13;;;;;;;5.60;1.87;;;20.30;53.50;;;;;;5036769;28;20456;-81
2022/06/10 09:40:43;;;;;;;9.70;2.20;;;20.20;52.00;;;;;;5037487;28;20468;-83
2022/06/10 09:43:46;;;;;;;6.20;1.90;;;20.40;53.60;;;;;;5036115;28;20838;-84
2022/06/10 09:46:31;;;;;;;7.20;2.00;;;20.50;53.70;;;;;;5036844;28;20516;-83
2022/06/10 09:49:12;;;;;;;10.33;2.67;;;20.60;48.30;;;;;;5036113;28;20483;-84
2022/06/10 09:51:54;;;;;;;8.30;2.13;;;20.60;47.50;;;;;;5037357;28;20459;-83
2022/06/10 09:54:33;;;;;;;7.57;1.40;;;20.90;47.90;;;;;;5039719;28;20459;-83
2022/06/10 09:57:35;;;;;;;12.70;2.17;;;21.30;47.40;;;;;;5036807;28;20482;-82
2022/06/10 10:00:11;;;;;;;12.90;2.10;;;21.50;44.10;;;;;;5018754;28;20449;-82
2022/06/10 10:02:47;;;;;;;11.90;1.73;;;21.80;43.40;;;;;;5039198;28;20454;-82
2022/06/10 10:05:36;;;;;;;6.70;1.73;;;22.30;40.90;;;;;;5040084;28;20479;-82
2022/06/10 10:08:11;;;;;;;6.13;1.57;;;22.50;39.20;;;;;;5039180;28;21031;-84
2022/06/10 10:10:45;;;;;;;6.13;1.30;;;22.80;39.80;;;;;;5039403;28;20459;-82
2022/06/10 10:13:44;;;;;;;10.73;1.50;;;23.10;35.80;;;;;;5041531;28;20452;-81
2022/06/10 10:16:25;;;;;;;8.43;1.77;;;22.90;35.70;;;;;;5029279;28;20484;-82
2022/06/10 10:19:12;;;;;;;6.10;1.67;;;22.70;36.90;;;;;;5040117;28;20462;-81
2022/06/10 10:21:46;;;;;;;5.00;1.27;;;22.60;35.60;;;;;;5041377;28;20459;-80
2022/06/10 10:24:19;;;;;;;5.60;1.20;;;22.60;36.60;;;;;;5040577;28;20465;-81
2022/06/10 10:26:49;;;;;;;4.93;1.63;;;22.90;35.70;;;;;;5041530;28;20650;-86
2022/06/10 10:29:18;;;;;;;8.30;1.43;;;23.40;36.10;;;;;;5040700;28;20459;-83
2022/06/10 10:31:52;;;;;;;7.60;1.57;;;23.70;34.70;;;;;;5040944;28;20482;-83
2022/06/10 10:34:22;;;;;;;4.00;1.30;;;23.80;33.00;;;;;;5041897;28;20837;-83
2022/06/10 10:36:51;;;;;;;4.47;1.13;;;24.30;34.60;;;;;;5040980;28;20470;-82
2022/06/10 10:39:28;;;;;;;7.83;1.63;;;24.20;32.70;;;;;;5039911;28;20462;-82
2022/06/10 10:41:57;;;;;;;6.17;1.40;;;24.10;30.10;;;;;;5039625;28;20448;-83
2022/06/10 10:44:35;;;;;;;9.47;1.50;;;24.20;30.00;;;;;;5040693;28;20456;-81
2022/06/10 10:47:16;;;;;;;5.17;1.40;;;24.50;30.20;;;;;;5039989;28;20886;-82
2022/06/10 10:49:47;;;;;;;4.60;1.10;;;25.10;31.50;;;;;;5040219;28;20451;-82
2022/06/10 10:52:20;;;;;;;7.07;1.30;;;24.70;27.60;;;;;;5040837;28;20462;-82
2022/06/10 10:54:50;;;;;;;7.27;1.40;;;24.10;28.30;;;;;;5040988;28;20490;-82
2022/06/10 10:57:26;;;;;;;6.53;1.43;;;24.20;27.50;;;;;;5041083;28;20444;-83
2022/06/10 11:00:00;;;;;;;7.23;1.37;;;24.40;30.00;;;;;;5044382;28;20450;-81
2022/06/10 11:02:36;;;;;;;5.53;1.43;;;24.50;28.30;;;;;;5045121;28;20450;-85
2022/06/10 11:05:26;;;;;;;5.63;1.23;;;24.80;27.60;;;;;;5044325;28;20804;-82
2022/06/10 11:08:20;;;;;;;5.70;1.30;;;24.80;30.00;;;;;;5044910;28;20456;-82
2022/06/10 11:11:07;;;;;;;7.83;1.30;;;24.70;28.20;;;;;;5044619;28;20952;-83
2022/06/10 11:13:54;;;;;;;7.60;1.53;;;24.80;27.20;;;;;;5026053;28;20452;-86
2022/06/10 11:16:55;;;;;;;7.70;1.40;;;24.60;28.50;;;;;;5037524;28;20470;-86
2022/06/10 11:19:39;;;;;;;6.67;1.53;;;24.40;27.00;;;;;;5036026;28;20459;-86
2022/06/10 11:22:16;;;;;;;6.13;1.30;;;24.50;26.40;;;;;;5037829;28;20452;-84
2022/06/10 11:24:45;;;;;;;5.87;1.43;;;24.70;28.30;;;;;;5038079;28;20832;-85
2022/06/10 11:27:27;;;;;;;5.20;1.60;;;24.80;24.20;;;;;;5039761;28;20488;-83
2022/06/10 11:30:06;;;;;;;5.70;1.33;;;25.10;25.10;;;;;;5037271;28;20487;-84
2022/06/10 11:32:37;;;;;;;6.63;1.93;;;25.50;27.10;;;;;;5038298;28;20429;-78
2022/06/10 11:35:23;;;;;;;5.10;1.23;;;25.60;24.30;;;;;;5040682;28;20456;-82
2022/06/10 11:37:53;;;;;;;5.60;1.27;;;26.30;26.10;;;;;;5042656;28;20498;-82
2022/06/10 11:40:24;;;;;;;6.63;1.40;;;26.70;22.20;;;;;;5041019;28;20452;-82
2022/06/10 11:42:57;;;;;;;8.27;1.40;;;26.70;24.10;;;;;;5042219;28;21019;-82
2022/06/10 11:45:28;;;;;;;6.63;1.60;;;26.50;22.00;;;;;;5042841;28;20575;-84
2022/06/10 11:48:00;;;;;;;5.80;1.67;;;26.60;22.90;;;;;;5042719;28;20458;-82
2022/06/10 11:50:32;;;;;;;9.73;1.90;;;27.40;21.60;;;;;;5039058;28;20488;-83
2022/06/10 11:53:05;;;;;;;8.40;1.47;;;26.90;19.50;;;;;;5036394;28;20443;-84
2022/06/10 11:55:36;;;;;;;9.07;1.80;;;26.70;19.30;;;;;;5040094;28;20850;-81
2022/06/10 12:00:57;;;;;;;5.77;1.50;;;25.80;21.60;;;;;;5042346;28;20435;-82
2022/06/10 12:03:29;;;;;;;6.27;1.60;;;26.30;21.10;;;;;;5042995;28;20488;-83
2022/06/10 12:06:04;;;;;;;7.97;1.80;;;26.30;22.20;;;;;;5042599;28;20895;-82
2022/06/10 12:08:39;;;;;;;9.23;1.63;;;26.50;21.00;;;;;;5041738;28;20459;-82
2022/06/10 12:11:22;;;;;;;6.03;1.47;;;26.40;21.50;;;;;;5043090;28;20920;-83
2022/06/10 12:13:58;;;;;;;6.77;1.47;;;26.20;20.80;;;;;;5042525;28;20455;-82
2022/06/10 12:16:26;;;;;;;4.30;1.20;;;26.10;19.20;;;;;;5042425;28;20475;-82
2022/06/10 12:18:53;;;;;;;4.73;1.33;;;26.00;21.30;;;;;;5042175;28;20454;-82
2022/06/10 12:21:25;;;;;;;9.20;1.83;;;26.80;20.20;;;;;;5043740;28;20475;-83
2022/06/10 12:23:52;;;;;;;6.47;1.70;;;26.90;20.80;;;;;;5042573;28;20464;-83
2022/06/10 12:26:38;;;;;;;4.60;1.60;;;26.50;19.90;;;;;;5042915;28;20482;-82
2022/06/10 12:29:16;;;;;;;7.13;1.37;;;26.90;19.20;;;;;;5043197;28;20456;-82
2022/06/10 12:31:51;;;;;;;7.50;1.73;;;27.70;17.30;;;;;;5043129;28;20979;-82
2022/06/10 12:34:26;;;;;;;5.40;1.47;;;28.50;16.50;;;;;;5043006;28;20538;-82
2022/06/10 12:36:57;;;;;;;7.30;2.33;;;27.90;13.60;;;;;;5043253;28;20475;-83
2022/06/10 12:39:29;;;;;;;7.60;1.43;;;27.90;15.00;;;;;;5042291;28;20448;-84
2022/06/10 12:42:04;;;;;;;13.80;1.67;;;28.00;16.30;;;;;;5042222;28;20460;-82
2022/06/10 12:44:37;;;;;;;6.60;1.80;;;27.60;15.70;;;;;;5042353;28;20465;-83
2022/06/10 12:47:07;;;;;;;5.70;1.67;;;27.70;10.80;;;;;;5042575;28;20483;-82
2022/06/10 12:49:38;;;;;;;5.50;1.27;;;27.60;16.50;;;;;;5042211;28;20492;-82
2022/06/10 12:52:25;;;;;;;4.70;1.23;;;28.30;13.70;;;;;;5042003;28;20528;-82
2022/06/10 12:54:59;;;;;;;6.30;1.63;;;28.70;12.30;;;;;;5043142;28;20448;-83
2022/06/10 12:57:38;;;;;;;7.77;1.63;;;28.90;11.10;;;;;;5043528;28;20435;-82
2022/06/10 13:00:34;;;;;;;5.30;1.70;;;29.10;11.60;;;;;;5043045;28;20448;-82
2022/06/10 13:03:33;;;;;;;9.23;1.57;;;29.80;8.50;;;;;;5042219;28;20437;-85
2022/06/10 13:06:46;;;;;;;7.73;1.13;;;31.10;9.00;;;;;;5026722;28;20499;-84
2022/06/10 13:09:46;;;;;;;8.73;1.90;;;31.60;3.90;;;;;;5011730;28;20503;-85
2022/06/10 13:12:37;;;;;;;10.27;1.50;;;31.00;3.50;;;;;;5011539;28;20952;-85